sensor_id;sensor_type;location;lat;lon;timestamp;P1;durP1;ratioP1;P2;durP2;ratioP2
8831;SDS011;4452;50.756;4.472;2023-04-24T00:00:07;26.80;;;10.25;;
8831;SDS011;4452;50.756;4.472;2023-04-24T00:02:40;21.90;;;12.30;;
8831;SDS011;4452;50.756;4.472;2023-04-24T00:05:15;20.95;;;11.25;;
8831;SDS011;4452;50.756;4.472;2023-04-24T00:07:42;21.98;;;12.63;;
8831;SDS011;4452;50.756;4.472;2023-04-24T00:10:10;24.13;;;11.68;;
8831;SDS011;4452;50.756;4.472;2023-04-24T00:12:36;22.33;;;11.75;;
8831;SDS011;4452;50.756;4.472;2023-04-24T00:15:03;21.05;;;11.95;;
8831;SDS011;4452;50.756;4.472;2023-04-24T00:17:30;21.33;;;10.70;;
8831;SDS011;4452;50.756;4.472;2023-04-24T00:19:56;26.95;;;13.93;;
8831;SDS011;4452;50.756;4.472;2023-04-24T00:22:26;17.40;;;8.80;;
8831;SDS011;4452;50.756;4.472;2023-04-24T00:24:53;15.82;;;11.20;;
8831;SDS011;4452;50.756;4.472;2023-04-24T00:27:19;23.08;;;11.05;;
8831;SDS011;4452;50.756;4.472;2023-04-24T00:29:44;13.77;;;9.95;;
8831;SDS011;4452;50.756;4.472;2023-04-24T00:32:10;23.88;;;11.98;;
8831;SDS011;4452;50.756;4.472;2023-04-24T00:34:36;17.45;;;10.07;;
8831;SDS011;4452;50.756;4.472;2023-04-24T00:37:02;17.85;;;11.30;;
8831;SDS011;4452;50.756;4.472;2023-04-24T00:39:28;19.55;;;11.20;;
8831;SDS011;4452;50.756;4.472;2023-04-24T00:41:53;28.23;;;14.57;;
8831;SDS011;4452;50.756;4.472;2023-04-24T00:44:20;23.67;;;12.25;;
8831;SDS011;4452;50.756;4.472;2023-04-24T00:46:46;24.33;;;12.75;;
8831;SDS011;4452;50.756;4.472;2023-04-24T00:49:17;17.40;;;9.95;;
8831;SDS011;4452;50.756;4.472;2023-04-24T00:51:43;17.50;;;8.07;;
8831;SDS011;4452;50.756;4.472;2023-04-24T00:54:11;21.10;;;10.77;;
8831;SDS011;4452;50.756;4.472;2023-04-24T00:56:37;17.23;;;11.93;;
8831;SDS011;4452;50.756;4.472;2023-04-24T00:59:03;19.95;;;11.45;;
8831;SDS011;4452;50.756;4.472;2023-04-24T01:01:29;18.52;;;10.88;;
8831;SDS011;4452;50.756;4.472;2023-04-24T01:03:55;15.32;;;8.57;;
8831;SDS011;4452;50.756;4.472;2023-04-24T01:06:22;26.23;;;11.50;;
8831;SDS011;4452;50.756;4.472;2023-04-24T01:08:52;23.25;;;11.68;;
8831;SDS011;4452;50.756;4.472;2023-04-24T01:11:18;27.67;;;12.82;;
8831;SDS011;4452;50.756;4.472;2023-04-24T01:13:46;30.40;;;11.73;;
8831;SDS011;4452;50.756;4.472;2023-04-24T01:16:13;29.85;;;14.00;;
8831;SDS011;4452;50.756;4.472;2023-04-24T01:18:39;18.15;;;11.85;;
8831;SDS011;4452;50.756;4.472;2023-04-24T01:21:06;24.90;;;11.45;;
8831;SDS011;4452;50.756;4.472;2023-04-24T01:23:34;28.25;;;14.75;;
8831;SDS011;4452;50.756;4.472;2023-04-24T01:26:00;25.40;;;13.05;;
8831;SDS011;4452;50.756;4.472;2023-04-24T01:28:25;24.27;;;13.70;;
8831;SDS011;4452;50.756;4.472;2023-04-24T01:30:52;15.98;;;10.88;;
8831;SDS011;4452;50.756;4.472;2023-04-24T01:33:18;18.60;;;10.65;;
8831;SDS011;4452;50.756;4.472;2023-04-24T01:35:46;31.48;;;12.88;;
8831;SDS011;4452;50.756;4.472;2023-04-24T01:38:13;34.55;;;16.00;;
8831;SDS011;4452;50.756;4.472;2023-04-24T01:40:39;18.60;;;10.25;;
8831;SDS011;4452;50.756;4.472;2023-04-24T01:43:05;27.25;;;11.18;;
8831;SDS011;4452;50.756;4.472;2023-04-24T01:45:31;27.60;;;15.05;;
8831;SDS011;4452;50.756;4.472;2023-04-24T01:47:57;38.90;;;17.80;;
8831;SDS011;4452;50.756;4.472;2023-04-24T01:50:23;25.45;;;12.98;;
8831;SDS011;4452;50.756;4.472;2023-04-24T01:52:49;27.13;;;10.60;;
8831;SDS011;4452;50.756;4.472;2023-04-24T01:55:15;21.70;;;12.57;;
8831;SDS011;4452;50.756;4.472;2023-04-24T01:57:40;27.98;;;15.82;;
8831;SDS011;4452;50.756;4.472;2023-04-24T02:00:06;26.17;;;13.77;;
8831;SDS011;4452;50.756;4.472;2023-04-24T02:02:33;23.17;;;13.35;;
8831;SDS011;4452;50.756;4.472;2023-04-24T02:04:59;39.85;;;17.67;;
8831;SDS011;4452;50.756;4.472;2023-04-24T02:07:24;31.05;;;18.80;;
8831;SDS011;4452;50.756;4.472;2023-04-24T02:09:50;27.05;;;15.02;;
8831;SDS011;4452;50.756;4.472;2023-04-24T02:12:16;34.72;;;17.75;;
8831;SDS011;4452;50.756;4.472;2023-04-24T02:14:42;29.80;;;18.95;;
8831;SDS011;4452;50.756;4.472;2023-04-24T02:17:08;27.55;;;13.45;;
8831;SDS011;4452;50.756;4.472;2023-04-24T02:19:34;28.15;;;16.73;;
8831;SDS011;4452;50.756;4.472;2023-04-24T02:22:00;36.60;;;16.95;;
8831;SDS011;4452;50.756;4.472;2023-04-24T02:24:26;33.85;;;17.13;;
8831;SDS011;4452;50.756;4.472;2023-04-24T02:26:51;28.73;;;17.52;;
8831;SDS011;4452;50.756;4.472;2023-04-24T02:29:17;35.25;;;18.15;;
8831;SDS011;4452;50.756;4.472;2023-04-24T02:31:43;26.33;;;14.85;;
8831;SDS011;4452;50.756;4.472;2023-04-24T02:34:08;28.95;;;15.35;;
8831;SDS011;4452;50.756;4.472;2023-04-24T02:36:34;15.73;;;11.13;;
8831;SDS011;4452;50.756;4.472;2023-04-24T02:39:00;29.20;;;15.90;;
8831;SDS011;4452;50.756;4.472;2023-04-24T02:41:26;23.20;;;15.05;;
8831;SDS011;4452;50.756;4.472;2023-04-24T02:43:57;25.25;;;13.65;;
8831;SDS011;4452;50.756;4.472;2023-04-24T02:46:23;35.67;;;18.58;;
8831;SDS011;4452;50.756;4.472;2023-04-24T02:48:49;29.38;;;12.80;;
8831;SDS011;4452;50.756;4.472;2023-04-24T02:51:15;22.33;;;16.30;;
8831;SDS011;4452;50.756;4.472;2023-04-24T02:53:40;34.28;;;13.85;;
8831;SDS011;4452;50.756;4.472;2023-04-24T02:56:06;30.10;;;14.77;;
8831;SDS011;4452;50.756;4.472;2023-04-24T02:58:32;23.55;;;14.15;;
8831;SDS011;4452;50.756;4.472;2023-04-24T03:00:57;23.60;;;11.85;;
8831;SDS011;4452;50.756;4.472;2023-04-24T03:03:23;35.75;;;15.77;;
8831;SDS011;4452;50.756;4.472;2023-04-24T03:05:49;20.20;;;10.48;;
8831;SDS011;4452;50.756;4.472;2023-04-24T03:08:15;34.42;;;12.85;;
8831;SDS011;4452;50.756;4.472;2023-04-24T03:10:41;29.33;;;14.32;;
8831;SDS011;4452;50.756;4.472;2023-04-24T03:13:06;22.20;;;12.65;;
8831;SDS011;4452;50.756;4.472;2023-04-24T03:15:32;26.25;;;13.05;;
8831;SDS011;4452;50.756;4.472;2023-04-24T03:17:58;17.92;;;11.13;;
8831;SDS011;4452;50.756;4.472;2023-04-24T03:20:24;22.80;;;12.30;;
8831;SDS011;4452;50.756;4.472;2023-04-24T03:22:49;26.13;;;13.10;;
8831;SDS011;4452;50.756;4.472;2023-04-24T03:25:15;19.67;;;12.20;;
8831;SDS011;4452;50.756;4.472;2023-04-24T03:27:41;29.55;;;15.43;;
8831;SDS011;4452;50.756;4.472;2023-04-24T03:30:07;23.30;;;12.75;;
8831;SDS011;4452;50.756;4.472;2023-04-24T03:32:33;18.10;;;11.68;;
8831;SDS011;4452;50.756;4.472;2023-04-24T03:34:58;19.90;;;11.48;;
8831;SDS011;4452;50.756;4.472;2023-04-24T03:37:24;28.35;;;14.13;;
8831;SDS011;4452;50.756;4.472;2023-04-24T03:39:51;15.50;;;9.63;;
8831;SDS011;4452;50.756;4.472;2023-04-24T03:42:17;20.35;;;10.63;;
8831;SDS011;4452;50.756;4.472;2023-04-24T03:44:43;26.80;;;13.50;;
8831;SDS011;4452;50.756;4.472;2023-04-24T03:47:08;21.77;;;12.25;;
8831;SDS011;4452;50.756;4.472;2023-04-24T03:49:35;22.10;;;10.82;;
8831;SDS011;4452;50.756;4.472;2023-04-24T03:52:00;27.60;;;15.20;;
8831;SDS011;4452;50.756;4.472;2023-04-24T03:54:26;19.58;;;11.93;;
8831;SDS011;4452;50.756;4.472;2023-04-24T03:56:52;26.73;;;10.90;;
8831;SDS011;4452;50.756;4.472;2023-04-24T03:59:17;30.00;;;14.48;;
8831;SDS011;4452;50.756;4.472;2023-04-24T04:01:43;23.98;;;13.23;;
8831;SDS011;4452;50.756;4.472;2023-04-24T04:04:10;34.55;;;14.18;;
8831;SDS011;4452;50.756;4.472;2023-04-24T04:06:36;23.02;;;11.23;;
8831;SDS011;4452;50.756;4.472;2023-04-24T04:09:02;17.65;;;9.48;;
8831;SDS011;4452;50.756;4.472;2023-04-24T04:11:28;10.77;;;6.70;;
8831;SDS011;4452;50.756;4.472;2023-04-24T04:13:54;12.68;;;8.40;;
8831;SDS011;4452;50.756;4.472;2023-04-24T04:16:19;17.00;;;7.90;;
8831;SDS011;4452;50.756;4.472;2023-04-24T04:18:45;19.75;;;8.18;;
8831;SDS011;4452;50.756;4.472;2023-04-24T04:21:11;14.23;;;6.80;;
8831;SDS011;4452;50.756;4.472;2023-04-24T04:23:37;23.65;;;9.52;;
8831;SDS011;4452;50.756;4.472;2023-04-24T04:26:03;24.60;;;10.70;;
8831;SDS011;4452;50.756;4.472;2023-04-24T04:28:30;20.13;;;10.13;;
8831;SDS011;4452;50.756;4.472;2023-04-24T04:30:56;21.85;;;10.90;;
8831;SDS011;4452;50.756;4.472;2023-04-24T04:33:26;14.50;;;9.23;;
8831;SDS011;4452;50.756;4.472;2023-04-24T04:35:51;15.70;;;9.45;;
8831;SDS011;4452;50.756;4.472;2023-04-24T04:38:18;16.08;;;7.32;;
8831;SDS011;4452;50.756;4.472;2023-04-24T04:40:44;18.13;;;10.18;;
8831;SDS011;4452;50.756;4.472;2023-04-24T04:43:10;20.48;;;11.20;;
8831;SDS011;4452;50.756;4.472;2023-04-24T04:45:38;21.65;;;11.13;;
8831;SDS011;4452;50.756;4.472;2023-04-24T04:48:05;23.65;;;12.65;;
8831;SDS011;4452;50.756;4.472;2023-04-24T04:50:32;25.63;;;11.38;;
8831;SDS011;4452;50.756;4.472;2023-04-24T04:52:58;23.65;;;10.32;;
8831;SDS011;4452;50.756;4.472;2023-04-24T04:55:24;28.48;;;13.00;;
8831;SDS011;4452;50.756;4.472;2023-04-24T04:57:50;23.58;;;13.30;;
8831;SDS011;4452;50.756;4.472;2023-04-24T05:00:16;21.08;;;11.13;;
8831;SDS011;4452;50.756;4.472;2023-04-24T05:02:42;22.15;;;12.35;;
8831;SDS011;4452;50.756;4.472;2023-04-24T05:05:08;18.63;;;10.52;;
8831;SDS011;4452;50.756;4.472;2023-04-24T05:07:34;22.42;;;12.00;;
8831;SDS011;4452;50.756;4.472;2023-04-24T05:10:00;28.52;;;13.98;;
8831;SDS011;4452;50.756;4.472;2023-04-24T05:12:25;23.75;;;13.43;;
8831;SDS011;4452;50.756;4.472;2023-04-24T05:14:51;34.15;;;15.50;;
8831;SDS011;4452;50.756;4.472;2023-04-24T05:17:17;28.65;;;13.18;;
8831;SDS011;4452;50.756;4.472;2023-04-24T05:19:43;26.67;;;13.32;;
8831;SDS011;4452;50.756;4.472;2023-04-24T05:22:13;29.88;;;14.25;;
8831;SDS011;4452;50.756;4.472;2023-04-24T05:25:00;29.23;;;14.60;;
8831;SDS011;4452;50.756;4.472;2023-04-24T05:27:26;28.20;;;14.52;;
8831;SDS011;4452;50.756;4.472;2023-04-24T05:29:51;30.05;;;14.05;;
8831;SDS011;4452;50.756;4.472;2023-04-24T05:32:17;39.22;;;15.00;;
8831;SDS011;4452;50.756;4.472;2023-04-24T05:34:43;30.20;;;15.52;;
8831;SDS011;4452;50.756;4.472;2023-04-24T05:37:08;37.20;;;17.42;;
8831;SDS011;4452;50.756;4.472;2023-04-24T05:39:35;31.92;;;14.38;;
8831;SDS011;4452;50.756;4.472;2023-04-24T05:42:01;25.65;;;12.07;;
8831;SDS011;4452;50.756;4.472;2023-04-24T05:44:28;34.53;;;15.18;;
8831;SDS011;4452;50.756;4.472;2023-04-24T05:46:54;41.30;;;16.52;;
8831;SDS011;4452;50.756;4.472;2023-04-24T05:49:21;40.75;;;18.08;;
8831;SDS011;4452;50.756;4.472;2023-04-24T05:51:46;40.50;;;15.95;;
8831;SDS011;4452;50.756;4.472;2023-04-24T05:54:12;38.60;;;17.48;;
8831;SDS011;4452;50.756;4.472;2023-04-24T05:56:38;29.30;;;14.35;;
8831;SDS011;4452;50.756;4.472;2023-04-24T05:59:04;33.42;;;17.52;;
8831;SDS011;4452;50.756;4.472;2023-04-24T06:01:30;25.23;;;11.70;;
8831;SDS011;4452;50.756;4.472;2023-04-24T06:03:56;36.35;;;17.33;;
8831;SDS011;4452;50.756;4.472;2023-04-24T06:06:23;36.95;;;17.85;;
8831;SDS011;4452;50.756;4.472;2023-04-24T06:08:49;35.03;;;14.52;;
8831;SDS011;4452;50.756;4.472;2023-04-24T06:11:14;29.00;;;13.90;;
8831;SDS011;4452;50.756;4.472;2023-04-24T06:13:40;27.17;;;13.98;;
8831;SDS011;4452;50.756;4.472;2023-04-24T06:16:06;24.17;;;13.48;;
8831;SDS011;4452;50.756;4.472;2023-04-24T06:18:32;40.92;;;15.50;;
8831;SDS011;4452;50.756;4.472;2023-04-24T06:20:58;33.97;;;13.68;;
8831;SDS011;4452;50.756;4.472;2023-04-24T06:23:23;38.63;;;16.20;;
8831;SDS011;4452;50.756;4.472;2023-04-24T06:25:50;24.33;;;13.57;;
8831;SDS011;4452;50.756;4.472;2023-04-24T06:28:19;21.98;;;12.32;;
8831;SDS011;4452;50.756;4.472;2023-04-24T06:30:47;28.95;;;14.05;;
8831;SDS011;4452;50.756;4.472;2023-04-24T06:33:16;23.40;;;12.68;;
8831;SDS011;4452;50.756;4.472;2023-04-24T06:35:44;34.45;;;16.52;;
8831;SDS011;4452;50.756;4.472;2023-04-24T06:38:15;41.75;;;19.50;;
8831;SDS011;4452;50.756;4.472;2023-04-24T06:40:43;34.45;;;17.00;;
8831;SDS011;4452;50.756;4.472;2023-04-24T06:43:09;38.92;;;15.82;;
8831;SDS011;4452;50.756;4.472;2023-04-24T06:45:36;55.03;;;21.00;;
8831;SDS011;4452;50.756;4.472;2023-04-24T06:48:01;52.05;;;21.83;;
8831;SDS011;4452;50.756;4.472;2023-04-24T06:50:27;40.15;;;17.92;;
8831;SDS011;4452;50.756;4.472;2023-04-24T06:52:53;31.00;;;17.00;;
8831;SDS011;4452;50.756;4.472;2023-04-24T06:55:19;52.40;;;21.85;;
8831;SDS011;4452;50.756;4.472;2023-04-24T06:57:45;42.97;;;20.23;;
8831;SDS011;4452;50.756;4.472;2023-04-24T07:00:10;41.65;;;19.98;;
8831;SDS011;4452;50.756;4.472;2023-04-24T07:02:37;46.50;;;19.58;;
8831;SDS011;4452;50.756;4.472;2023-04-24T07:05:04;40.47;;;18.65;;
8831;SDS011;4452;50.756;4.472;2023-04-24T07:07:34;56.05;;;22.42;;
8831;SDS011;4452;50.756;4.472;2023-04-24T07:10:04;53.40;;;19.63;;
8831;SDS011;4452;50.756;4.472;2023-04-24T07:12:31;36.45;;;18.48;;
8831;SDS011;4452;50.756;4.472;2023-04-24T07:15:00;36.58;;;21.27;;
8831;SDS011;4452;50.756;4.472;2023-04-24T07:17:28;34.03;;;15.88;;
8831;SDS011;4452;50.756;4.472;2023-04-24T07:19:54;41.53;;;19.88;;
8831;SDS011;4452;50.756;4.472;2023-04-24T07:22:20;46.50;;;20.70;;
8831;SDS011;4452;50.756;4.472;2023-04-24T07:24:46;33.13;;;15.98;;
8831;SDS011;4452;50.756;4.472;2023-04-24T07:27:11;57.47;;;20.35;;
8831;SDS011;4452;50.756;4.472;2023-04-24T07:29:37;39.80;;;18.52;;
8831;SDS011;4452;50.756;4.472;2023-04-24T07:32:04;41.13;;;18.15;;
8831;SDS011;4452;50.756;4.472;2023-04-24T07:34:31;41.92;;;18.60;;
8831;SDS011;4452;50.756;4.472;2023-04-24T07:36:56;38.35;;;20.38;;
8831;SDS011;4452;50.756;4.472;2023-04-24T07:39:23;39.88;;;18.17;;
8831;SDS011;4452;50.756;4.472;2023-04-24T07:41:48;41.30;;;18.13;;
8831;SDS011;4452;50.756;4.472;2023-04-24T07:44:15;37.67;;;17.35;;
8831;SDS011;4452;50.756;4.472;2023-04-24T07:46:46;35.30;;;19.30;;
8831;SDS011;4452;50.756;4.472;2023-04-24T07:49:15;38.65;;;17.33;;
8831;SDS011;4452;50.756;4.472;2023-04-24T07:51:43;37.03;;;17.27;;
8831;SDS011;4452;50.756;4.472;2023-04-24T07:54:12;44.67;;;18.75;;
8831;SDS011;4452;50.756;4.472;2023-04-24T07:56:44;43.13;;;19.77;;
8831;SDS011;4452;50.756;4.472;2023-04-24T07:59:12;53.53;;;20.83;;
8831;SDS011;4452;50.756;4.472;2023-04-24T08:01:44;41.45;;;16.00;;
8831;SDS011;4452;50.756;4.472;2023-04-24T08:04:10;32.15;;;15.68;;
8831;SDS011;4452;50.756;4.472;2023-04-24T08:06:36;38.75;;;17.17;;
8831;SDS011;4452;50.756;4.472;2023-04-24T08:09:01;41.00;;;16.20;;
8831;SDS011;4452;50.756;4.472;2023-04-24T08:11:28;38.05;;;18.00;;
8831;SDS011;4452;50.756;4.472;2023-04-24T08:13:53;38.83;;;17.20;;
8831;SDS011;4452;50.756;4.472;2023-04-24T08:16:19;40.38;;;16.70;;
8831;SDS011;4452;50.756;4.472;2023-04-24T08:18:45;32.97;;;16.73;;
8831;SDS011;4452;50.756;4.472;2023-04-24T08:21:11;33.40;;;15.10;;
8831;SDS011;4452;50.756;4.472;2023-04-24T08:23:42;26.45;;;12.52;;
8831;SDS011;4452;50.756;4.472;2023-04-24T08:26:08;21.80;;;13.07;;
8831;SDS011;4452;50.756;4.472;2023-04-24T08:28:35;27.05;;;14.05;;
8831;SDS011;4452;50.756;4.472;2023-04-24T08:31:00;39.60;;;15.13;;
8831;SDS011;4452;50.756;4.472;2023-04-24T08:33:26;26.67;;;14.98;;
8831;SDS011;4452;50.756;4.472;2023-04-24T08:35:52;23.83;;;11.73;;
8831;SDS011;4452;50.756;4.472;2023-04-24T08:38:18;29.65;;;14.85;;
8831;SDS011;4452;50.756;4.472;2023-04-24T08:40:43;20.08;;;10.60;;
8831;SDS011;4452;50.756;4.472;2023-04-24T08:43:11;27.75;;;13.60;;
8831;SDS011;4452;50.756;4.472;2023-04-24T08:45:38;24.35;;;12.20;;
8831;SDS011;4452;50.756;4.472;2023-04-24T08:48:04;34.17;;;12.77;;
8831;SDS011;4452;50.756;4.472;2023-04-24T08:50:31;15.98;;;10.23;;
8831;SDS011;4452;50.756;4.472;2023-04-24T08:52:57;22.58;;;12.00;;
8831;SDS011;4452;50.756;4.472;2023-04-24T08:55:23;18.48;;;9.55;;
8831;SDS011;4452;50.756;4.472;2023-04-24T08:57:50;18.55;;;9.60;;
8831;SDS011;4452;50.756;4.472;2023-04-24T09:00:21;19.77;;;9.70;;
8831;SDS011;4452;50.756;4.472;2023-04-24T09:02:48;19.15;;;8.30;;
8831;SDS011;4452;50.756;4.472;2023-04-24T09:05:15;13.95;;;7.90;;
8831;SDS011;4452;50.756;4.472;2023-04-24T09:07:44;13.23;;;8.10;;
8831;SDS011;4452;50.756;4.472;2023-04-24T09:10:12;15.77;;;8.18;;
8831;SDS011;4452;50.756;4.472;2023-04-24T09:12:38;20.55;;;9.40;;
8831;SDS011;4452;50.756;4.472;2023-04-24T09:15:05;13.30;;;6.70;;
8831;SDS011;4452;50.756;4.472;2023-04-24T09:17:33;18.58;;;7.82;;
8831;SDS011;4452;50.756;4.472;2023-04-24T09:19:59;10.00;;;6.00;;
8831;SDS011;4452;50.756;4.472;2023-04-24T09:22:25;14.55;;;6.15;;
8831;SDS011;4452;50.756;4.472;2023-04-24T09:25:03;11.88;;;5.43;;
8831;SDS011;4452;50.756;4.472;2023-04-24T09:27:32;11.55;;;6.80;;
8831;SDS011;4452;50.756;4.472;2023-04-24T09:29:58;5.82;;;4.80;;
8831;SDS011;4452;50.756;4.472;2023-04-24T09:32:24;8.70;;;5.60;;
8831;SDS011;4452;50.756;4.472;2023-04-24T09:35:12;10.80;;;5.97;;
8831;SDS011;4452;50.756;4.472;2023-04-24T09:37:38;13.27;;;6.55;;
8831;SDS011;4452;50.756;4.472;2023-04-24T09:42:52;14.55;;;6.57;;
8831;SDS011;4452;50.756;4.472;2023-04-24T09:45:19;10.55;;;6.70;;
8831;SDS011;4452;50.756;4.472;2023-04-24T09:47:51;19.35;;;7.72;;
8831;SDS011;4452;50.756;4.472;2023-04-24T09:50:17;10.80;;;6.93;;
8831;SDS011;4452;50.756;4.472;2023-04-24T09:52:56;13.95;;;7.22;;
8831;SDS011;4452;50.756;4.472;2023-04-24T09:55:29;8.70;;;4.95;;
8831;SDS011;4452;50.756;4.472;2023-04-24T09:57:59;10.60;;;6.63;;
8831;SDS011;4452;50.756;4.472;2023-04-24T10:00:27;9.05;;;4.95;;
8831;SDS011;4452;50.756;4.472;2023-04-24T10:02:57;10.80;;;5.95;;
8831;SDS011;4452;50.756;4.472;2023-04-24T10:05:32;12.63;;;5.82;;
8831;SDS011;4452;50.756;4.472;2023-04-24T10:08:06;7.07;;;5.00;;
8831;SDS011;4452;50.756;4.472;2023-04-24T10:10:34;13.85;;;5.93;;
8831;SDS011;4452;50.756;4.472;2023-04-24T10:13:03;8.25;;;5.25;;
8831;SDS011;4452;50.756;4.472;2023-04-24T10:15:29;11.98;;;5.05;;
8831;SDS011;4452;50.756;4.472;2023-04-24T10:17:55;11.13;;;5.45;;
8831;SDS011;4452;50.756;4.472;2023-04-24T10:20:24;9.10;;;5.18;;
8831;SDS011;4452;50.756;4.472;2023-04-24T10:22:52;12.27;;;4.97;;
8831;SDS011;4452;50.756;4.472;2023-04-24T10:25:28;9.25;;;4.82;;
8831;SDS011;4452;50.756;4.472;2023-04-24T10:27:55;8.57;;;4.90;;
8831;SDS011;4452;50.756;4.472;2023-04-24T10:30:24;13.60;;;5.22;;
8831;SDS011;4452;50.756;4.472;2023-04-24T10:32:51;9.52;;;5.63;;
8831;SDS011;4452;50.756;4.472;2023-04-24T10:35:17;8.65;;;5.30;;
8831;SDS011;4452;50.756;4.472;2023-04-24T10:37:54;11.10;;;5.55;;
8831;SDS011;4452;50.756;4.472;2023-04-24T10:40:27;12.25;;;5.80;;
8831;SDS011;4452;50.756;4.472;2023-04-24T10:42:56;8.75;;;5.47;;
8831;SDS011;4452;50.756;4.472;2023-04-24T10:45:22;10.80;;;5.55;;
8831;SDS011;4452;50.756;4.472;2023-04-24T10:48:02;6.82;;;5.63;;
8831;SDS011;4452;50.756;4.472;2023-04-24T10:50:30;11.38;;;5.45;;
8831;SDS011;4452;50.756;4.472;2023-04-24T10:53:16;14.82;;;5.72;;
8831;SDS011;4452;50.756;4.472;2023-04-24T10:55:47;10.82;;;6.30;;
8831;SDS011;4452;50.756;4.472;2023-04-24T10:59:02;10.93;;;5.47;;
8831;SDS011;4452;50.756;4.472;2023-04-24T11:01:44;9.55;;;5.65;;
8831;SDS011;4452;50.756;4.472;2023-04-24T11:04:03;8.20;;;5.82;;
8831;SDS011;4452;50.756;4.472;2023-04-24T11:06:29;9.55;;;5.82;;
8831;SDS011;4452;50.756;4.472;2023-04-24T11:09:06;16.40;;;6.32;;
8831;SDS011;4452;50.756;4.472;2023-04-24T11:11:37;10.80;;;6.45;;
8831;SDS011;4452;50.756;4.472;2023-04-24T11:14:06;10.48;;;6.70;;
8831;SDS011;4452;50.756;4.472;2023-04-24T11:16:45;10.38;;;6.90;;
8831;SDS011;4452;50.756;4.472;2023-04-24T11:19:26;12.27;;;7.40;;
8831;SDS011;4452;50.756;4.472;2023-04-24T11:27:15;18.35;;;7.60;;
8831;SDS011;4452;50.756;4.472;2023-04-24T11:35:18;15.30;;;6.80;;
8831;SDS011;4452;50.756;4.472;2023-04-24T11:37:46;11.02;;;7.35;;
8831;SDS011;4452;50.756;4.472;2023-04-24T11:40:18;12.27;;;7.88;;
8831;SDS011;4452;50.756;4.472;2023-04-24T11:42:49;12.55;;;7.75;;
8831;SDS011;4452;50.756;4.472;2023-04-24T11:45:16;14.35;;;6.97;;
8831;SDS011;4452;50.756;4.472;2023-04-24T11:47:50;12.32;;;7.70;;
8831;SDS011;4452;50.756;4.472;2023-04-24T11:50:16;8.90;;;6.45;;
8831;SDS011;4452;50.756;4.472;2023-04-24T11:52:44;14.70;;;8.13;;
8831;SDS011;4452;50.756;4.472;2023-04-24T11:57:54;12.07;;;7.60;;
8831;SDS011;4452;50.756;4.472;2023-04-24T12:00:25;10.02;;;7.80;;
8831;SDS011;4452;50.756;4.472;2023-04-24T12:03:02;8.65;;;5.93;;
8831;SDS011;4452;50.756;4.472;2023-04-24T12:05:32;13.13;;;7.45;;
8831;SDS011;4452;50.756;4.472;2023-04-24T12:07:59;12.65;;;7.68;;
8831;SDS011;4452;50.756;4.472;2023-04-24T12:10:27;10.68;;;6.50;;
8831;SDS011;4452;50.756;4.472;2023-04-24T12:12:54;10.77;;;7.10;;
8831;SDS011;4452;50.756;4.472;2023-04-24T12:15:21;10.55;;;7.05;;
8831;SDS011;4452;50.756;4.472;2023-04-24T12:17:47;11.02;;;8.10;;
8831;SDS011;4452;50.756;4.472;2023-04-24T12:20:16;13.27;;;8.20;;
8831;SDS011;4452;50.756;4.472;2023-04-24T12:22:50;12.90;;;7.97;;
8831;SDS011;4452;50.756;4.472;2023-04-24T12:25:19;9.93;;;6.57;;
8831;SDS011;4452;50.756;4.472;2023-04-24T12:28:09;11.93;;;7.30;;
8831;SDS011;4452;50.756;4.472;2023-04-24T12:30:43;13.73;;;8.25;;
8831;SDS011;4452;50.756;4.472;2023-04-24T12:33:18;13.15;;;8.20;;
8831;SDS011;4452;50.756;4.472;2023-04-24T12:35:47;10.70;;;7.18;;
8831;SDS011;4452;50.756;4.472;2023-04-24T12:38:22;14.57;;;5.97;;
8831;SDS011;4452;50.756;4.472;2023-04-24T12:41:04;9.57;;;6.28;;
8831;SDS011;4452;50.756;4.472;2023-04-24T12:43:36;7.88;;;6.65;;
8831;SDS011;4452;50.756;4.472;2023-04-24T12:46:03;11.13;;;7.03;;
8831;SDS011;4452;50.756;4.472;2023-04-24T12:48:30;11.20;;;7.45;;
8831;SDS011;4452;50.756;4.472;2023-04-24T12:50:59;9.98;;;7.30;;
8831;SDS011;4452;50.756;4.472;2023-04-24T12:53:28;10.50;;;6.80;;
8831;SDS011;4452;50.756;4.472;2023-04-24T12:55:55;9.88;;;6.78;;
8831;SDS011;4452;50.756;4.472;2023-04-24T12:58:22;7.82;;;6.47;;
8831;SDS011;4452;50.756;4.472;2023-04-24T13:00:49;8.75;;;7.55;;
8831;SDS011;4452;50.756;4.472;2023-04-24T13:03:18;11.85;;;7.07;;
8831;SDS011;4452;50.756;4.472;2023-04-24T13:05:48;11.70;;;7.72;;
8831;SDS011;4452;50.756;4.472;2023-04-24T13:08:13;9.32;;;7.10;;
8831;SDS011;4452;50.756;4.472;2023-04-24T13:10:39;8.38;;;7.10;;
8831;SDS011;4452;50.756;4.472;2023-04-24T13:13:05;7.53;;;6.25;;
8831;SDS011;4452;50.756;4.472;2023-04-24T13:15:31;7.97;;;7.05;;
8831;SDS011;4452;50.756;4.472;2023-04-24T13:17:57;9.02;;;6.93;;
8831;SDS011;4452;50.756;4.472;2023-04-24T13:20:22;10.85;;;7.03;;
8831;SDS011;4452;50.756;4.472;2023-04-24T13:22:48;11.05;;;8.07;;
8831;SDS011;4452;50.756;4.472;2023-04-24T13:25:13;11.10;;;7.05;;
8831;SDS011;4452;50.756;4.472;2023-04-24T13:27:41;7.10;;;6.40;;
8831;SDS011;4452;50.756;4.472;2023-04-24T13:30:07;7.72;;;6.47;;
8831;SDS011;4452;50.756;4.472;2023-04-24T13:32:33;9.55;;;6.40;;
8831;SDS011;4452;50.756;4.472;2023-04-24T13:35:00;7.95;;;6.20;;
8831;SDS011;4452;50.756;4.472;2023-04-24T13:37:26;6.93;;;5.55;;
8831;SDS011;4452;50.756;4.472;2023-04-24T13:39:51;9.00;;;6.00;;
8831;SDS011;4452;50.756;4.472;2023-04-24T13:42:17;6.28;;;5.32;;
8831;SDS011;4452;50.756;4.472;2023-04-24T13:44:43;12.60;;;6.47;;
8831;SDS011;4452;50.756;4.472;2023-04-24T13:47:09;10.73;;;6.47;;
8831;SDS011;4452;50.756;4.472;2023-04-24T13:49:35;7.75;;;5.65;;
8831;SDS011;4452;50.756;4.472;2023-04-24T13:52:01;10.45;;;6.32;;
8831;SDS011;4452;50.756;4.472;2023-04-24T13:54:27;8.93;;;5.68;;
8831;SDS011;4452;50.756;4.472;2023-04-24T13:56:55;9.60;;;5.63;;
8831;SDS011;4452;50.756;4.472;2023-04-24T13:59:22;9.48;;;6.03;;
8831;SDS011;4452;50.756;4.472;2023-04-24T14:01:48;5.95;;;4.93;;
8831;SDS011;4452;50.756;4.472;2023-04-24T14:04:14;5.43;;;4.90;;
8831;SDS011;4452;50.756;4.472;2023-04-24T14:06:40;10.05;;;4.93;;
8831;SDS011;4452;50.756;4.472;2023-04-24T14:09:06;7.07;;;4.70;;
8831;SDS011;4452;50.756;4.472;2023-04-24T14:11:31;5.40;;;4.63;;
8831;SDS011;4452;50.756;4.472;2023-04-24T14:13:58;7.28;;;4.65;;
8831;SDS011;4452;50.756;4.472;2023-04-24T14:16:24;6.60;;;3.70;;
8831;SDS011;4452;50.756;4.472;2023-04-24T14:18:50;8.43;;;4.80;;
8831;SDS011;4452;50.756;4.472;2023-04-24T14:21:15;6.22;;;4.80;;
8831;SDS011;4452;50.756;4.472;2023-04-24T14:23:41;11.73;;;5.03;;
8831;SDS011;4452;50.756;4.472;2023-04-24T14:26:07;10.25;;;5.00;;
8831;SDS011;4452;50.756;4.472;2023-04-24T14:28:33;8.80;;;5.20;;
8831;SDS011;4452;50.756;4.472;2023-04-24T14:30:59;6.05;;;4.65;;
8831;SDS011;4452;50.756;4.472;2023-04-24T14:33:24;7.82;;;4.72;;
8831;SDS011;4452;50.756;4.472;2023-04-24T14:35:50;8.32;;;5.22;;
8831;SDS011;4452;50.756;4.472;2023-04-24T14:38:16;7.03;;;4.80;;
8831;SDS011;4452;50.756;4.472;2023-04-24T14:40:42;4.30;;;3.92;;
8831;SDS011;4452;50.756;4.472;2023-04-24T14:43:07;5.05;;;4.18;;
8831;SDS011;4452;50.756;4.472;2023-04-24T14:45:33;5.13;;;3.70;;
8831;SDS011;4452;50.756;4.472;2023-04-24T14:47:59;5.57;;;3.75;;
8831;SDS011;4452;50.756;4.472;2023-04-24T14:50:25;6.85;;;4.40;;
8831;SDS011;4452;50.756;4.472;2023-04-24T14:52:53;3.47;;;2.67;;
8831;SDS011;4452;50.756;4.472;2023-04-24T14:55:22;6.53;;;3.78;;
8831;SDS011;4452;50.756;4.472;2023-04-24T14:57:48;4.30;;;2.85;;
8831;SDS011;4452;50.756;4.472;2023-04-24T15:00:13;7.53;;;3.90;;
8831;SDS011;4452;50.756;4.472;2023-04-24T15:02:41;3.40;;;3.03;;
8831;SDS011;4452;50.756;4.472;2023-04-24T15:05:09;4.63;;;3.45;;
8831;SDS011;4452;50.756;4.472;2023-04-24T15:07:37;5.28;;;3.60;;
8831;SDS011;4452;50.756;4.472;2023-04-24T15:10:10;12.35;;;3.45;;
8831;SDS011;4452;50.756;4.472;2023-04-24T15:12:39;4.78;;;3.25;;